createdAt,value
2019-03-23T00:01:26.157Z,51.20
2019-03-23T00:06:30.830Z,58.87
2019-03-23T00:11:28.593Z,85.17
2019-03-23T00:16:28.769Z,76.73
2019-03-23T00:21:28.912Z,59.83
2019-03-23T00:26:29.078Z,89.63
2019-03-23T00:31:29.247Z,77.87
2019-03-23T00:36:29.649Z,70.20
2019-03-23T00:41:29.839Z,78.23
2019-03-23T00:46:30.006Z,84.93
2019-03-23T00:51:30.178Z,55.70
2019-03-23T00:56:30.661Z,49.30
2019-03-23T01:01:30.797Z,49.87
2019-03-23T01:06:30.967Z,73.13
2019-03-23T01:11:32.221Z,53.90
2019-03-23T01:16:32.462Z,44.67
2019-03-23T01:21:32.897Z,47.77
2019-03-23T01:26:33.059Z,58.27
2019-03-23T01:31:33.230Z,67.77
2019-03-23T01:36:33.637Z,64.30
2019-03-23T01:41:34.126Z,61.60
2019-03-23T01:46:34.333Z,72.93
2019-03-23T01:51:34.533Z,66.17
2019-03-23T01:56:34.718Z,72.30
2019-03-23T02:01:34.960Z,47.77
2019-03-23T02:06:35.124Z,64.17
2019-03-23T02:11:35.689Z,63.90
2019-03-23T02:16:35.890Z,64.57
2019-03-23T02:21:36.090Z,77.50
2019-03-23T02:26:36.278Z,71.23
2019-03-23T02:31:36.441Z,83.67
2019-03-23T02:36:36.627Z,73.10
2019-03-23T02:41:36.904Z,82.53
2019-03-23T02:46:37.104Z,78.20
2019-03-23T02:51:39.693Z,75.83
2019-03-23T02:56:39.210Z,50.93
2019-03-23T03:01:39.418Z,69.87
2019-03-23T03:06:39.577Z,49.60
2019-03-23T03:11:39.722Z,62.83
2019-03-23T03:16:39.900Z,46.57
2019-03-23T03:21:40.054Z,42.70
2019-03-23T03:26:40.239Z,68.10
2019-03-23T03:31:40.467Z,69.43
2019-03-23T03:36:40.976Z,70.00
2019-03-23T03:41:41.161Z,69.23
2019-03-23T03:46:41.357Z,78.87
2019-03-23T03:51:41.555Z,77.87
2019-03-23T03:56:41.751Z,70.57
2019-03-23T04:01:41.921Z,141.90
2019-03-23T04:06:42.510Z,116.63
2019-03-23T04:11:42.710Z,78.07
2019-03-23T04:16:42.920Z,84.17
2019-03-23T04:21:43.544Z,103.83
2019-03-23T04:26:43.713Z,125.10
2019-03-23T04:31:43.888Z,100.90
2019-03-23T04:36:44.087Z,80.50
2019-03-23T04:41:44.283Z,51.50
2019-03-23T04:46:44.471Z,68.20
2019-03-23T04:51:44.978Z,79.47
2019-03-23T04:56:45.407Z,67.90
2019-03-23T05:01:45.657Z,46.83
2019-03-23T05:06:45.840Z,53.80
2019-03-23T05:11:46.351Z,66.33
2019-03-23T05:16:46.615Z,66.93
2019-03-23T05:21:46.774Z,45.50
2019-03-23T05:26:46.953Z,58.13
2019-03-23T05:31:47.511Z,62.10
2019-03-23T05:36:47.954Z,70.20
2019-03-23T05:41:48.144Z,52.33
2019-03-23T05:46:48.331Z,69.53
2019-03-23T05:51:48.771Z,60.10
2019-03-23T05:56:49.631Z,75.40
2019-03-23T06:01:49.903Z,74.37
2019-03-23T06:06:50.099Z,69.87
2019-03-23T06:11:50.297Z,41.03
2019-03-23T06:16:50.819Z,75.30
2019-03-23T06:21:51.008Z,85.97
2019-03-23T06:26:51.795Z,73.17
2019-03-23T06:31:52.268Z,88.90
2019-03-23T06:36:52.716Z,107.47
2019-03-23T06:41:52.978Z,91.67
2019-03-23T06:46:53.179Z,108.07
2019-03-23T06:51:53.750Z,101.63
2019-03-23T06:56:54.246Z,88.60
2019-03-23T07:01:55.346Z,107.53
2019-03-23T07:06:55.661Z,85.63
2019-03-23T07:11:55.864Z,100.83
2019-03-23T07:16:56.051Z,95.60
2019-03-23T07:21:56.246Z,87.17
2019-03-23T07:26:56.512Z,84.47
2019-03-23T07:32:05.459Z,80.70
2019-03-23T07:36:59.163Z,89.70
2019-03-23T07:41:59.911Z,79.00
2019-03-23T07:47:00.106Z,81.73
2019-03-23T07:52:00.631Z,82.53
2019-03-23T07:57:01.114Z,77.37
2019-03-23T08:02:01.341Z,69.77
2019-03-23T08:07:01.603Z,86.80
2019-03-23T08:12:01.791Z,99.90
2019-03-23T08:17:01.999Z,91.10
2019-03-23T08:22:02.178Z,75.87
2019-03-23T08:27:02.375Z,74.67
2019-03-23T08:32:02.567Z,92.03
2019-03-23T08:37:03.135Z,79.20
2019-03-23T08:42:03.675Z,73.77
2019-03-23T08:47:03.864Z,77.07
2019-03-23T08:52:04.061Z,81.07
2019-03-23T08:57:04.541Z,73.27
2019-03-23T09:02:04.838Z,68.60
2019-03-23T09:07:05.090Z,69.43
2019-03-23T09:12:05.460Z,73.60
2019-03-23T09:17:05.734Z,68.03
2019-03-23T09:22:06.195Z,60.90
2019-03-23T09:27:06.539Z,67.67
2019-03-23T09:32:06.803Z,73.00
2019-03-23T09:37:07.003Z,75.47
2019-03-23T09:42:07.282Z,90.20
2019-03-23T09:47:07.586Z,72.20
2019-03-23T09:52:19.142Z,73.10
2019-03-23T09:57:19.327Z,66.07
2019-03-23T10:02:19.522Z,70.50
2019-03-23T10:07:19.854Z,74.13
2019-03-23T10:12:20.079Z,62.13
2019-03-23T10:17:20.280Z,55.83
2019-03-23T10:22:20.534Z,52.60
2019-03-23T10:27:20.831Z,52.00
2019-03-23T10:32:21.023Z,58.63
2019-03-23T10:37:21.307Z,45.47
2019-03-23T10:42:21.519Z,50.47
2019-03-23T10:47:21.768Z,45.53
2019-03-23T10:52:22.228Z,64.00
2019-03-23T10:57:22.701Z,53.50
2019-03-23T11:02:22.959Z,53.90
2019-03-23T11:07:23.242Z,42.97
2019-03-23T11:12:23.447Z,41.63
2019-03-23T11:17:23.722Z,38.27
2019-03-23T11:22:23.948Z,38.27
2019-03-23T11:27:24.434Z,44.43
2019-03-23T11:32:24.796Z,40.80
2019-03-23T11:37:38.003Z,46.53
2019-03-23T11:42:48.831Z,38.87
2019-03-23T11:47:40.391Z,42.37
2019-03-23T11:52:41.626Z,47.93
2019-03-23T11:57:41.812Z,44.50
2019-03-23T12:02:42.567Z,40.30
2019-03-23T12:07:42.746Z,47.90
2019-03-23T12:12:43.039Z,46.10
2019-03-23T12:17:43.224Z,45.30
2019-03-23T12:22:43.408Z,38.83
2019-03-23T12:27:43.959Z,46.33
2019-03-23T12:32:44.139Z,42.67
2019-03-23T12:37:44.337Z,54.57
2019-03-23T12:42:44.607Z,50.07
2019-03-23T12:47:44.771Z,41.10
2019-03-23T12:52:45.047Z,38.00
2019-03-23T12:57:45.588Z,49.40
2019-03-23T13:02:45.867Z,54.60
2019-03-23T13:07:46.387Z,58.80
2019-03-23T13:12:46.743Z,64.90
2019-03-23T13:17:47.275Z,50.10
2019-03-23T13:22:59.228Z,47.93
2019-03-23T13:27:59.439Z,54.63
2019-03-23T13:32:59.959Z,49.93
2019-03-23T13:38:00.240Z,59.73
2019-03-23T13:43:00.547Z,59.80
2019-03-23T13:48:00.872Z,51.03
2019-03-23T13:53:01.363Z,63.57
2019-03-23T13:58:12.455Z,62.33
2019-03-23T14:03:12.921Z,75.63
2019-03-23T14:08:13.276Z,71.67
2019-03-23T14:13:13.498Z,67.93
2019-03-23T14:18:13.731Z,67.67
2019-03-23T14:23:13.947Z,66.33
2019-03-23T14:28:14.163Z,70.90
2019-03-23T14:33:14.663Z,72.23
2019-03-23T14:38:14.875Z,64.73
2019-03-23T14:43:15.090Z,61.67
2019-03-23T14:48:15.411Z,47.10
2019-03-23T14:53:15.631Z,53.23
2019-03-23T14:58:16.169Z,40.43
2019-03-23T15:03:16.714Z,35.53
2019-03-23T15:08:17.227Z,30.20
2019-03-23T15:13:17.507Z,38.93
2019-03-23T15:18:17.715Z,33.53
2019-03-23T15:23:18.992Z,47.43
2019-03-23T15:28:19.180Z,45.70
2019-03-23T15:33:19.515Z,34.47
2019-03-23T15:38:19.735Z,31.20
2019-03-23T15:43:19.968Z,30.33
2019-03-23T15:48:20.175Z,33.27
2019-03-23T15:53:20.395Z,27.50
2019-03-23T15:58:21.165Z,27.93
2019-03-23T16:03:21.366Z,29.03
2019-03-23T16:08:21.604Z,28.23
2019-03-23T16:13:21.870Z,38.50
2019-03-23T16:18:22.428Z,33.23
2019-03-23T16:23:22.935Z,24.27
2019-03-23T16:28:23.227Z,42.93
2019-03-23T16:33:23.467Z,26.77
2019-03-23T16:38:23.693Z,19.60
2019-03-23T16:43:24.233Z,20.57
2019-03-23T16:48:24.494Z,9.67
2019-03-23T16:53:24.675Z,7.90
2019-03-23T16:58:24.851Z,9.73
2019-03-23T17:03:25.137Z,9.30
2019-03-23T17:08:25.392Z,6.50
2019-03-23T17:13:37.546Z,8.80
2019-03-23T17:18:37.741Z,6.30
2019-03-23T17:23:37.960Z,5.27
2019-03-23T17:28:39.239Z,6.93
2019-03-23T17:33:39.744Z,16.40
2019-03-23T17:38:40.715Z,9.10
2019-03-23T17:43:41.457Z,7.73
2019-03-23T17:48:41.999Z,8.93
2019-03-23T17:53:58.590Z,11.43
2019-03-23T17:58:55.973Z,9.37
2019-03-23T18:03:56.497Z,9.13
2019-03-23T18:08:56.699Z,8.60
2019-03-23T18:13:56.907Z,9.23
2019-03-23T18:18:57.192Z,14.23
2019-03-23T18:23:57.459Z,14.33
2019-03-23T18:28:57.997Z,7.20
2019-03-23T18:33:58.493Z,14.80
2019-03-23T18:39:00.419Z,11.00
2019-03-23T18:44:02.306Z,9.10
2019-03-23T18:49:02.490Z,8.13
2019-03-23T18:54:02.949Z,13.30
2019-03-23T18:59:03.135Z,17.07
2019-03-23T19:04:03.579Z,13.90
2019-03-23T19:09:05.165Z,17.90
2019-03-23T19:14:05.732Z,16.63
2019-03-23T19:19:06.239Z,15.13
2019-03-23T19:24:06.459Z,6.53
2019-03-23T19:29:07.389Z,17.97
2019-03-23T19:34:07.546Z,19.37
2019-03-23T19:39:09.287Z,24.30
2019-03-23T19:44:10.355Z,12.70
2019-03-23T19:49:10.893Z,15.13
2019-03-23T19:54:11.163Z,22.97
2019-03-23T19:59:11.670Z,14.10
2019-03-23T20:04:12.120Z,13.13
2019-03-23T20:09:13.698Z,19.80
2019-03-23T20:14:13.959Z,11.47
2019-03-23T20:19:14.139Z,17.37
2019-03-23T20:24:14.330Z,18.17
2019-03-23T20:29:14.494Z,12.93
2019-03-23T20:34:14.703Z,10.93
2019-03-23T20:39:15.282Z,17.30
2019-03-23T20:44:15.478Z,26.83
2019-03-23T20:49:16.419Z,15.70
2019-03-23T20:54:16.816Z,23.00
2019-03-23T20:59:16.998Z,17.20
2019-03-23T21:04:17.558Z,15.87
2019-03-23T21:09:18.329Z,12.60
2019-03-23T21:14:20.427Z,11.43
2019-03-23T21:19:20.876Z,15.30
2019-03-23T21:24:22.464Z,15.83
2019-03-23T21:29:22.641Z,11.77
2019-03-23T21:34:22.827Z,11.23
2019-03-23T21:39:23.087Z,18.53
2019-03-23T21:44:30.937Z,27.17
2019-03-23T21:49:25.396Z,18.53
2019-03-23T21:54:25.591Z,18.40
2019-03-23T21:59:26.144Z,20.53
2019-03-23T22:04:26.374Z,14.40
2019-03-23T22:09:27.124Z,14.33
2019-03-23T22:14:27.339Z,17.70
2019-03-23T22:19:27.622Z,25.03
2019-03-23T22:24:28.105Z,18.77
2019-03-23T22:29:28.620Z,16.10
2019-03-23T22:34:28.868Z,21.10
2019-03-23T22:39:29.483Z,14.43
2019-03-23T22:44:30.140Z,15.37
2019-03-23T22:49:30.743Z,14.60
2019-03-23T22:54:30.926Z,14.73
2019-03-23T22:59:31.680Z,24.80
2019-03-23T23:04:31.927Z,10.60
2019-03-23T23:09:32.107Z,15.53
2019-03-23T23:14:32.596Z,12.07
2019-03-23T23:19:32.775Z,8.73
2019-03-23T23:24:33.282Z,19.40
2019-03-23T23:29:33.539Z,17.63
2019-03-23T23:34:34.074Z,19.37
2019-03-23T23:39:34.255Z,10.20
2019-03-23T23:44:36.875Z,13.53
2019-03-23T23:49:36.587Z,17.97
2019-03-23T23:54:36.783Z,17.80
2019-03-23T23:59:36.962Z,12.83
